createdAt,value
2023-05-07T00:00:38.198Z,101517.31
2023-05-07T00:03:06.589Z,101511.22
2023-05-07T00:05:34.405Z,101519.41
2023-05-07T00:08:02.086Z,101518.31
2023-05-07T00:10:30.089Z,101512.25
2023-05-07T00:12:58.148Z,101514.09
2023-05-07T00:15:25.767Z,101514.19
2023-05-07T00:17:54.985Z,101508.94
2023-05-07T00:20:22.682Z,101528.38
2023-05-07T00:22:50.179Z,101523.09
2023-05-07T00:25:17.727Z,101520.28
2023-05-07T00:27:45.192Z,101529.94
2023-05-07T00:30:13.174Z,101525.72
2023-05-07T00:32:41.183Z,101519.78
2023-05-07T00:35:09.262Z,101522.59
2023-05-07T00:37:37.145Z,101524.38
2023-05-07T00:40:08.322Z,101526.31
2023-05-07T00:42:36.329Z,101518.34
2023-05-07T00:45:04.156Z,101509.53
2023-05-07T00:47:32.562Z,101521.84
2023-05-07T00:50:00.652Z,101517.84
2023-05-07T00:52:28.911Z,101524.94
2023-05-07T00:54:56.684Z,101516.31
2023-05-07T00:57:25.390Z,101518.53
2023-05-07T00:59:53.307Z,101510.09
2023-05-07T01:02:20.781Z,101523.41
2023-05-07T01:04:48.358Z,101526.03
2023-05-07T01:07:16.897Z,101528.66
2023-05-07T01:09:45.801Z,101539.38
2023-05-07T01:12:14.304Z,101531.53
2023-05-07T01:14:42.398Z,101530.56
2023-05-07T01:17:10.221Z,101537.72
2023-05-07T01:19:37.777Z,101536.91
2023-05-07T01:22:09.942Z,101538.72
2023-05-07T01:24:47.480Z,101532.84
2023-05-07T01:27:16.305Z,101536.22
2023-05-07T01:29:44.379Z,101533.47
2023-05-07T01:32:14.182Z,101527.53
2023-05-07T01:34:42.186Z,101518.81
2023-05-07T01:37:09.974Z,101511.63
2023-05-07T01:39:40.919Z,101521.34
2023-05-07T01:42:08.537Z,101513.56
2023-05-07T01:44:36.180Z,101512.00
2023-05-07T01:47:04.453Z,101512.81
2023-05-07T01:49:32.272Z,101511.28
2023-05-07T01:52:00.286Z,101511.94
2023-05-07T01:54:31.739Z,101507.66
2023-05-07T01:57:00.195Z,101510.63
2023-05-07T01:59:27.920Z,101504.59
2023-05-07T02:01:55.602Z,101505.38
2023-05-07T02:04:23.382Z,101510.47
2023-05-07T02:06:52.128Z,101504.47
2023-05-07T02:09:19.815Z,101503.75
2023-05-07T02:11:49.705Z,101512.44
2023-05-07T02:14:18.987Z,101519.31
2023-05-07T02:16:46.618Z,101518.31
2023-05-07T02:19:15.696Z,101514.91
2023-05-07T02:21:43.191Z,101519.25
2023-05-07T02:24:10.706Z,101509.75
2023-05-07T02:26:38.234Z,101524.94
2023-05-07T02:29:05.749Z,101526.56
2023-05-07T02:31:37.648Z,101520.38
2023-05-07T02:34:05.224Z,101519.53
2023-05-07T02:36:33.550Z,101519.75
2023-05-07T02:39:06.695Z,101513.75
2023-05-07T02:41:34.326Z,101518.06
2023-05-07T02:44:01.758Z,101534.72
2023-05-07T02:46:29.753Z,101539.16
2023-05-07T02:49:02.505Z,101535.03
2023-05-07T02:51:31.749Z,101543.16
2023-05-07T02:54:02.294Z,101540.53
2023-05-07T02:56:31.358Z,101540.44
2023-05-07T02:58:59.592Z,101541.28
2023-05-07T03:01:31.427Z,101548.97
2023-05-07T03:04:03.468Z,101546.38
2023-05-07T03:06:31.408Z,101552.47
2023-05-07T03:08:58.865Z,101548.13
2023-05-07T03:11:26.850Z,101534.16
2023-05-07T03:13:54.562Z,101550.84
2023-05-07T03:16:23.189Z,101550.09
2023-05-07T03:18:50.944Z,101552.97
2023-05-07T03:21:18.486Z,101551.97
2023-05-07T03:23:46.287Z,101551.91
2023-05-07T03:26:14.334Z,101542.97
2023-05-07T03:28:42.458Z,101552.56
2023-05-07T03:31:13.387Z,101553.13
2023-05-07T03:33:52.204Z,101551.47
2023-05-07T03:36:20.422Z,101540.78
2023-05-07T03:38:49.009Z,101547.88
2023-05-07T03:41:20.218Z,101540.63
2023-05-07T03:43:48.000Z,101555.56
2023-05-07T03:46:16.057Z,101541.53
2023-05-07T03:48:44.163Z,101540.41
2023-05-07T03:51:14.525Z,101543.91
2023-05-07T03:53:42.036Z,101536.88
2023-05-07T03:56:09.614Z,101542.78
2023-05-07T03:58:40.010Z,101537.25
2023-05-07T04:01:10.805Z,101541.91
2023-05-07T04:03:38.688Z,101553.81
2023-05-07T04:06:06.879Z,101544.97
2023-05-07T04:08:36.703Z,101546.91
2023-05-07T04:11:05.755Z,101534.44
2023-05-07T04:13:34.804Z,101539.53
2023-05-07T04:16:05.305Z,101554.88
2023-05-07T04:18:36.116Z,101550.25
2023-05-07T04:21:03.753Z,101544.00
2023-05-07T04:23:33.765Z,101554.88
2023-05-07T04:26:04.424Z,101539.78
2023-05-07T04:28:37.434Z,101549.34
2023-05-07T04:31:05.347Z,101541.31
2023-05-07T04:33:34.949Z,101544.06
2023-05-07T04:36:04.206Z,101537.59
2023-05-07T04:38:34.762Z,101541.88
2023-05-07T04:41:05.265Z,101539.28
2023-05-07T04:43:35.547Z,101533.78
2023-05-07T04:46:03.439Z,101534.78
2023-05-07T04:48:31.568Z,101532.50
2023-05-07T04:51:00.560Z,101543.59
2023-05-07T04:53:28.119Z,101534.78
2023-05-07T04:55:58.312Z,101532.94
2023-05-07T04:58:32.893Z,101534.53
2023-05-07T05:01:01.555Z,101525.66
2023-05-07T05:03:31.187Z,101526.56
2023-05-07T05:06:00.861Z,101532.28
2023-05-07T05:08:32.178Z,101532.56
2023-05-07T05:11:03.339Z,101533.22
2023-05-07T05:13:32.131Z,101520.91
2023-05-07T05:16:01.112Z,101521.34
2023-05-07T05:18:30.734Z,101513.06
2023-05-07T05:20:58.193Z,101531.50
2023-05-07T05:23:25.694Z,101535.41
2023-05-07T05:25:59.570Z,101538.69
2023-05-07T05:28:30.162Z,101526.09
2023-05-07T05:30:58.022Z,101530.00
2023-05-07T05:33:27.496Z,101533.38
2023-05-07T05:35:57.529Z,101538.06
2023-05-07T05:38:25.065Z,101530.22
2023-05-07T05:40:53.842Z,101535.59
2023-05-07T05:43:23.048Z,101539.88
2023-05-07T05:45:50.630Z,101539.03
2023-05-07T05:48:18.599Z,101532.44
2023-05-07T05:50:46.191Z,101530.03
2023-05-07T05:53:15.256Z,101538.81
2023-05-07T05:55:43.439Z,101537.56
2023-05-07T05:58:11.476Z,101532.41
2023-05-07T06:00:43.055Z,101523.84
2023-05-07T06:03:11.612Z,101534.19
2023-05-07T06:05:39.824Z,101532.72
2023-05-07T06:08:07.428Z,101530.88
2023-05-07T06:10:38.234Z,101514.88
2023-05-07T06:13:07.832Z,101525.66
2023-05-07T06:15:38.011Z,101524.28
2023-05-07T06:18:10.577Z,101531.72
2023-05-07T06:20:38.227Z,101528.63
2023-05-07T06:23:10.437Z,101525.06
2023-05-07T06:25:38.340Z,101528.22
2023-05-07T06:28:07.471Z,101514.19
2023-05-07T06:30:38.559Z,101517.44
2023-05-07T06:33:06.164Z,101530.41
2023-05-07T06:35:33.762Z,101516.41
2023-05-07T06:38:01.833Z,101514.66
2023-05-07T06:40:31.044Z,101525.09
2023-05-07T06:43:00.900Z,101529.63
2023-05-07T06:45:48.042Z,101531.28
2023-05-07T06:48:16.037Z,101528.84
2023-05-07T06:50:58.587Z,101534.34
2023-05-07T06:53:27.614Z,101533.47
2023-05-07T06:55:56.440Z,101530.50
2023-05-07T06:58:24.610Z,101528.31
2023-05-07T07:00:52.219Z,101530.81
2023-05-07T07:03:21.287Z,101544.03
2023-05-07T07:05:53.226Z,101542.31
2023-05-07T07:08:24.889Z,101546.00
2023-05-07T07:10:53.129Z,101535.91
2023-05-07T07:13:20.846Z,101533.56
2023-05-07T07:15:48.801Z,101540.09
2023-05-07T07:18:16.518Z,101534.28
2023-05-07T07:20:45.670Z,101534.41
2023-05-07T07:23:15.333Z,101537.34
2023-05-07T07:25:42.880Z,101525.59
2023-05-07T07:28:11.834Z,101520.56
2023-05-07T07:30:40.723Z,101517.88
2023-05-07T07:33:08.277Z,101509.31
2023-05-07T07:35:38.383Z,101520.56
2023-05-07T07:38:07.244Z,101519.91
2023-05-07T07:40:36.679Z,101506.09
2023-05-07T07:43:05.990Z,101518.00
2023-05-07T07:45:34.139Z,101506.19
2023-05-07T07:48:02.664Z,101506.56
2023-05-07T07:50:43.712Z,101516.41
2023-05-07T07:53:14.337Z,101503.75
2023-05-07T07:55:42.113Z,101499.69
2023-05-07T07:58:11.511Z,101518.50
2023-05-07T08:00:39.019Z,101506.50
2023-05-07T08:03:08.535Z,101513.63
2023-05-07T08:05:39.818Z,101500.50
2023-05-07T08:08:09.318Z,101502.72
2023-05-07T08:10:40.330Z,101510.25
2023-05-07T08:13:15.601Z,101486.34
2023-05-07T08:15:43.876Z,101497.41
2023-05-07T08:18:12.730Z,101488.94
2023-05-07T08:20:41.001Z,101496.97
2023-05-07T08:23:12.236Z,101496.34
2023-05-07T08:25:41.476Z,101483.84
2023-05-07T08:28:10.217Z,101487.44
2023-05-07T08:30:39.400Z,101490.88
2023-05-07T08:33:07.766Z,101496.50
2023-05-07T08:35:35.549Z,101497.75
2023-05-07T08:38:03.622Z,101487.53
2023-05-07T08:40:40.370Z,101478.34
2023-05-07T08:43:15.942Z,101485.91
2023-05-07T08:45:46.857Z,101472.28
2023-05-07T08:48:18.008Z,101492.97
2023-05-07T08:50:52.790Z,101489.22
2023-05-07T08:53:21.749Z,101488.06
2023-05-07T08:55:50.249Z,101477.34
2023-05-07T08:58:18.306Z,101475.81
2023-05-07T09:00:46.037Z,101478.63
2023-05-07T09:03:13.945Z,101473.22
2023-05-07T09:05:45.789Z,101470.63
2023-05-07T09:08:17.254Z,101472.88
2023-05-07T09:10:49.564Z,101466.09
2023-05-07T09:13:19.437Z,101475.03
2023-05-07T09:15:47.667Z,101471.25
2023-05-07T09:18:16.956Z,101471.50
2023-05-07T09:20:46.600Z,101458.66
2023-05-07T09:23:15.224Z,101455.47
2023-05-07T09:25:44.138Z,101460.00
2023-05-07T09:28:18.512Z,101450.63
2023-05-07T09:30:46.572Z,101464.13
2023-05-07T09:33:16.384Z,101447.13
2023-05-07T09:35:52.507Z,101447.53
2023-05-07T09:38:23.435Z,101446.94
2023-05-07T09:41:07.335Z,101455.84
2023-05-07T09:43:41.476Z,101445.53
2023-05-07T09:46:16.146Z,101450.59
2023-05-07T09:48:50.714Z,101432.13
2023-05-07T09:51:28.121Z,101451.41
2023-05-07T09:53:58.714Z,101446.66
2023-05-07T09:56:26.866Z,101443.47
2023-05-07T09:58:57.241Z,101463.56
2023-05-07T10:01:27.017Z,101436.97
2023-05-07T10:03:55.813Z,101440.22
2023-05-07T10:06:25.438Z,101436.72
2023-05-07T10:08:54.372Z,101445.19
2023-05-07T10:11:23.230Z,101438.53
2023-05-07T10:13:53.459Z,101440.28
2023-05-07T10:16:24.607Z,101436.16
2023-05-07T10:18:52.812Z,101440.50
2023-05-07T10:21:24.872Z,101447.78
2023-05-07T10:24:15.706Z,101443.91
2023-05-07T10:26:46.671Z,101445.09
2023-05-07T10:29:35.850Z,101443.91
2023-05-07T10:32:07.768Z,101453.63
2023-05-07T10:34:40.314Z,101444.00
2023-05-07T10:37:09.711Z,101437.63
2023-05-07T10:39:38.346Z,101431.28
2023-05-07T10:42:10.628Z,101444.97
2023-05-07T10:44:40.032Z,101446.53
2023-05-07T10:47:14.603Z,101442.47
2023-05-07T10:49:46.017Z,101445.47
2023-05-07T10:52:27.169Z,101437.72
2023-05-07T10:55:21.120Z,101447.38
2023-05-07T10:58:31.884Z,101442.59
2023-05-07T11:01:52.870Z,101439.91
2023-05-07T11:04:28.561Z,101439.06
2023-05-07T11:07:26.584Z,101432.22
2023-05-07T11:09:59.577Z,101428.88
2023-05-07T11:12:43.961Z,101408.72
2023-05-07T11:15:40.240Z,101427.16
2023-05-07T11:18:49.128Z,101415.50
2023-05-07T11:21:38.159Z,101418.78
2023-05-07T11:24:17.804Z,101406.53
2023-05-07T11:26:59.565Z,101404.31
2023-05-07T11:29:29.996Z,101390.41
2023-05-07T11:32:05.170Z,101391.75
2023-05-07T11:34:39.516Z,101393.06
2023-05-07T11:37:07.304Z,101382.66
2023-05-07T11:40:09.007Z,101374.94
2023-05-07T11:42:39.363Z,101372.53
2023-05-07T11:45:08.572Z,101366.94
2023-05-07T11:47:36.506Z,101378.72
2023-05-07T11:50:09.207Z,101363.81
2023-05-07T11:52:37.963Z,101365.41
2023-05-07T11:55:05.961Z,101359.13
2023-05-07T11:57:35.573Z,101361.78
2023-05-07T12:00:05.711Z,101361.91
2023-05-07T12:02:43.298Z,101357.75
2023-05-07T12:05:11.263Z,101358.53
2023-05-07T12:07:39.695Z,101351.78
2023-05-07T12:10:07.929Z,101348.56
2023-05-07T12:12:45.462Z,101349.47
2023-05-07T12:15:17.020Z,101346.25
2023-05-07T12:17:48.351Z,101345.78
2023-05-07T12:20:16.312Z,101346.47
2023-05-07T12:22:44.362Z,101342.81
2023-05-07T12:25:12.210Z,101352.53
2023-05-07T12:27:42.417Z,101346.44
2023-05-07T12:30:11.148Z,101346.44
2023-05-07T12:32:38.972Z,101348.13
2023-05-07T12:35:07.774Z,101335.94
2023-05-07T12:37:36.894Z,101338.84
2023-05-07T12:40:10.259Z,101330.81
2023-05-07T12:42:39.600Z,101332.34
2023-05-07T12:45:11.753Z,101326.56
2023-05-07T12:47:40.102Z,101323.41
2023-05-07T12:50:08.255Z,101317.41
2023-05-07T12:52:36.222Z,101322.56
2023-05-07T12:55:07.909Z,101323.53
2023-05-07T12:57:54.555Z,101320.75
2023-05-07T13:00:38.890Z,101316.38
2023-05-07T13:03:06.740Z,101314.97
2023-05-07T13:05:34.891Z,101315.47
2023-05-07T13:08:02.654Z,101319.16
2023-05-07T13:10:30.354Z,101307.50
2023-05-07T13:12:58.007Z,101316.31
2023-05-07T13:15:25.610Z,101315.13
2023-05-07T13:17:53.411Z,101314.84
2023-05-07T13:20:20.932Z,101310.78
2023-05-07T13:22:48.650Z,101320.75
2023-05-07T13:25:16.534Z,101312.06
2023-05-07T13:27:44.213Z,101316.78
2023-05-07T13:30:11.825Z,101307.81
2023-05-07T13:32:39.465Z,101308.66
2023-05-07T13:35:07.796Z,101315.28
2023-05-07T13:37:35.602Z,101322.31
2023-05-07T13:40:03.528Z,101314.41
2023-05-07T13:42:32.267Z,101313.56
2023-05-07T13:44:59.789Z,101300.97
2023-05-07T13:47:27.836Z,101310.16
2023-05-07T13:49:55.476Z,101301.63
2023-05-07T13:52:23.017Z,101309.81
2023-05-07T13:54:50.677Z,101302.03
2023-05-07T13:57:18.302Z,101319.50
2023-05-07T13:59:46.083Z,101311.94
2023-05-07T14:02:13.725Z,101324.31
2023-05-07T14:04:41.224Z,101312.06
2023-05-07T14:07:08.769Z,101315.72
2023-05-07T14:09:36.257Z,101323.84
2023-05-07T14:12:04.131Z,101321.59
2023-05-07T14:14:32.195Z,101327.03
2023-05-07T14:16:59.744Z,101319.13
2023-05-07T14:19:27.350Z,101319.66
2023-05-07T14:21:55.286Z,101310.03
2023-05-07T14:24:37.082Z,101313.88
2023-05-07T14:27:06.898Z,101318.91
2023-05-07T14:29:36.553Z,101326.19
2023-05-07T14:32:04.324Z,101326.69
2023-05-07T14:34:32.383Z,101320.50
2023-05-07T14:37:01.008Z,101318.88
2023-05-07T14:39:28.848Z,101320.09
2023-05-07T14:41:57.111Z,101326.91
2023-05-07T14:44:24.666Z,101322.50
2023-05-07T14:46:53.016Z,101319.66
2023-05-07T14:49:21.158Z,101311.88
2023-05-07T14:51:48.809Z,101330.09
2023-05-07T14:54:16.825Z,101325.69
2023-05-07T14:56:44.467Z,101328.16
2023-05-07T14:59:12.377Z,101316.41
2023-05-07T15:01:43.707Z,101321.84
2023-05-07T15:04:11.479Z,101323.66
2023-05-07T15:06:39.613Z,101319.19
2023-05-07T15:09:07.145Z,101325.38
2023-05-07T15:11:35.458Z,101316.63
2023-05-07T15:14:04.709Z,101320.22
2023-05-07T15:16:33.828Z,101331.19
2023-05-07T15:19:01.535Z,101327.56
2023-05-07T15:21:29.060Z,101324.59
2023-05-07T15:23:56.832Z,101327.53
2023-05-07T15:26:24.334Z,101324.72
2023-05-07T15:28:51.812Z,101322.53
2023-05-07T15:31:19.304Z,101326.16
2023-05-07T15:33:50.934Z,101333.72
2023-05-07T15:36:19.240Z,101333.44
2023-05-07T15:38:46.777Z,101340.41
2023-05-07T15:41:14.414Z,101335.69
2023-05-07T15:43:48.569Z,101335.47
2023-05-07T15:46:21.076Z,101339.00
2023-05-07T15:48:48.882Z,101333.66
2023-05-07T15:51:18.012Z,101335.66
2023-05-07T15:53:45.852Z,101331.44
2023-05-07T15:56:13.393Z,101335.72
2023-05-07T15:58:40.953Z,101338.53
2023-05-07T16:01:08.770Z,101329.31
2023-05-07T16:03:36.821Z,101334.81
2023-05-07T16:06:05.172Z,101333.81
2023-05-07T16:08:33.999Z,101343.06
2023-05-07T16:11:01.516Z,101341.88
2023-05-07T16:13:29.117Z,101345.22
2023-05-07T16:15:58.633Z,101350.53
2023-05-07T16:18:26.250Z,101350.75
2023-05-07T16:20:58.091Z,101353.94
2023-05-07T16:23:25.863Z,101355.81
2023-05-07T16:25:53.397Z,101353.66
2023-05-07T16:28:21.528Z,101363.28
2023-05-07T16:30:50.367Z,101365.25
2023-05-07T16:33:18.397Z,101360.97
2023-05-07T16:35:52.053Z,101364.97
2023-05-07T16:38:19.926Z,101366.19
2023-05-07T16:40:47.588Z,101369.31
2023-05-07T16:43:15.444Z,101369.69
2023-05-07T16:45:43.009Z,101373.47
2023-05-07T16:48:10.753Z,101377.34
2023-05-07T16:50:38.632Z,101376.06
2023-05-07T16:53:07.374Z,101370.72
2023-05-07T16:55:40.127Z,101380.78
2023-05-07T16:58:09.435Z,101377.63
2023-05-07T17:00:49.221Z,101385.69
2023-05-07T17:03:18.464Z,101387.75
2023-05-07T17:05:46.838Z,101390.34
2023-05-07T17:08:14.656Z,101380.22
2023-05-07T17:10:42.517Z,101396.03
2023-05-07T17:13:10.114Z,101391.72
2023-05-07T17:15:37.871Z,101392.97
2023-05-07T17:18:05.847Z,101401.78
2023-05-07T17:20:34.770Z,101402.91
2023-05-07T17:23:02.207Z,101390.75
2023-05-07T17:25:32.396Z,101391.94
2023-05-07T17:28:00.008Z,101394.19
2023-05-07T17:30:27.552Z,101391.69
2023-05-07T17:33:03.815Z,101401.56
2023-05-07T17:35:37.203Z,101399.91
2023-05-07T17:38:04.857Z,101400.34
2023-05-07T17:40:33.293Z,101393.66
2023-05-07T17:43:01.936Z,101398.97
2023-05-07T17:45:29.737Z,101403.34
2023-05-07T17:47:57.203Z,101399.06
2023-05-07T17:50:24.999Z,101409.25
2023-05-07T17:52:52.540Z,101399.59
2023-05-07T17:55:20.249Z,101409.50
2023-05-07T17:57:47.986Z,101406.19
2023-05-07T18:00:16.258Z,101405.56
2023-05-07T18:02:43.938Z,101414.56
2023-05-07T18:05:11.640Z,101411.13
2023-05-07T18:07:39.889Z,101408.72
2023-05-07T18:10:08.012Z,101414.38
2023-05-07T18:12:36.004Z,101416.75
2023-05-07T18:15:03.990Z,101412.16
2023-05-07T18:17:32.043Z,101419.44
2023-05-07T18:19:59.918Z,101426.25
2023-05-07T18:22:27.836Z,101428.03
2023-05-07T18:24:56.043Z,101422.91
2023-05-07T18:27:23.822Z,101416.22
2023-05-07T18:29:51.651Z,101426.72
2023-05-07T18:32:19.366Z,101422.59
2023-05-07T18:34:47.036Z,101420.03
2023-05-07T18:37:15.615Z,101418.69
2023-05-07T18:39:46.444Z,101409.88
2023-05-07T18:42:14.107Z,101412.22
2023-05-07T18:44:44.521Z,101405.50
2023-05-07T18:47:13.913Z,101413.63
2023-05-07T18:49:41.576Z,101415.53
2023-05-07T18:52:09.160Z,101413.22
2023-05-07T18:54:36.760Z,101407.78
2023-05-07T18:57:04.261Z,101399.19
2023-05-07T18:59:31.771Z,101402.25
2023-05-07T19:01:59.435Z,101403.03
2023-05-07T19:04:27.107Z,101401.41
2023-05-07T19:06:54.649Z,101403.50
2023-05-07T19:09:22.126Z,101409.97
2023-05-07T19:11:49.848Z,101401.00
2023-05-07T19:14:17.716Z,101407.53
2023-05-07T19:16:45.254Z,101410.50
2023-05-07T19:19:12.709Z,101405.97
2023-05-07T19:21:40.388Z,101407.63
2023-05-07T19:24:08.351Z,101409.97
2023-05-07T19:26:35.979Z,101409.16
2023-05-07T19:29:16.407Z,101408.09
2023-05-07T19:31:45.541Z,101415.19
2023-05-07T19:34:16.439Z,101410.94
2023-05-07T19:36:44.276Z,101407.69
2023-05-07T19:39:12.001Z,101404.09
2023-05-07T19:41:39.633Z,101411.50
2023-05-07T19:44:07.366Z,101419.50
2023-05-07T19:46:34.987Z,101421.06
2023-05-07T19:49:02.563Z,101421.06
2023-05-07T19:51:32.517Z,101420.31
2023-05-07T19:54:00.288Z,101429.31
2023-05-07T19:56:27.944Z,101423.94
2023-05-07T19:58:55.472Z,101415.28
2023-05-07T20:01:23.067Z,101414.72
2023-05-07T20:03:50.704Z,101426.03
2023-05-07T20:06:18.331Z,101414.19
2023-05-07T20:08:46.015Z,101424.41
2023-05-07T20:11:14.496Z,101420.31
2023-05-07T20:13:45.180Z,101424.78
2023-05-07T20:16:12.919Z,101425.72
2023-05-07T20:18:40.786Z,101433.94
2023-05-07T20:21:08.314Z,101433.94
2023-05-07T20:23:35.853Z,101440.81
2023-05-07T20:26:03.534Z,101437.63
2023-05-07T20:28:31.124Z,101434.34
2023-05-07T20:30:58.697Z,101434.41
2023-05-07T20:33:27.121Z,101434.28
2023-05-07T20:35:54.972Z,101439.41
2023-05-07T20:38:22.526Z,101444.63
2023-05-07T20:40:50.148Z,101453.53
2023-05-07T20:43:18.820Z,101449.16
2023-05-07T20:45:46.352Z,101443.06
2023-05-07T20:48:14.714Z,101444.09
2023-05-07T20:50:42.338Z,101451.50
2023-05-07T20:53:09.808Z,101456.13
2023-05-07T20:55:37.820Z,101449.88
2023-05-07T20:58:05.488Z,101452.66
2023-05-07T21:00:33.091Z,101454.69
2023-05-07T21:03:00.803Z,101457.72
2023-05-07T21:05:28.779Z,101454.97
2023-05-07T21:07:56.678Z,101454.44
2023-05-07T21:10:24.373Z,101459.16
2023-05-07T21:12:51.921Z,101459.09
2023-05-07T21:15:19.550Z,101453.13
2023-05-07T21:17:47.514Z,101465.38
2023-05-07T21:20:15.665Z,101466.25
2023-05-07T21:22:43.428Z,101466.09
2023-05-07T21:25:13.322Z,101477.19
2023-05-07T21:27:41.404Z,101472.78
2023-05-07T21:30:09.369Z,101475.78
2023-05-07T21:32:37.273Z,101475.19
2023-05-07T21:35:05.424Z,101474.53
2023-05-07T21:37:33.788Z,101481.41
2023-05-07T21:40:01.517Z,101474.13
2023-05-07T21:42:29.191Z,101481.81
2023-05-07T21:44:56.889Z,101468.75
2023-05-07T21:47:24.489Z,101475.78
2023-05-07T21:49:52.033Z,101484.78
2023-05-07T21:52:20.798Z,101481.56
2023-05-07T21:54:52.325Z,101489.59
2023-05-07T21:57:20.192Z,101487.78
2023-05-07T21:59:47.787Z,101493.34
2023-05-07T22:02:15.321Z,101501.19
2023-05-07T22:04:43.488Z,101494.13
2023-05-07T22:07:11.022Z,101505.03
2023-05-07T22:09:38.486Z,101492.47
2023-05-07T22:12:09.104Z,101499.75
2023-05-07T22:14:36.727Z,101503.06
2023-05-07T22:17:04.210Z,101498.22
2023-05-07T22:19:31.850Z,101494.84
2023-05-07T22:21:59.682Z,101497.78
2023-05-07T22:24:27.322Z,101494.09
2023-05-07T22:26:54.844Z,101489.13
2023-05-07T22:29:23.581Z,101495.44
2023-05-07T22:31:51.109Z,101490.84
2023-05-07T22:34:18.730Z,101500.56
2023-05-07T22:36:46.879Z,101494.50
2023-05-07T22:39:14.340Z,101494.28
2023-05-07T22:41:41.964Z,101489.06
2023-05-07T22:44:09.512Z,101501.56
2023-05-07T22:46:37.215Z,101487.78
2023-05-07T22:49:05.005Z,101495.88
2023-05-07T22:51:32.908Z,101492.44
2023-05-07T22:54:00.525Z,101496.66
2023-05-07T22:56:28.177Z,101487.06
2023-05-07T22:58:55.909Z,101487.47
2023-05-07T23:01:23.418Z,101498.91
2023-05-07T23:03:51.110Z,101492.63
2023-05-07T23:06:18.836Z,101501.41
2023-05-07T23:08:46.358Z,101491.13
2023-05-07T23:11:13.924Z,101498.22
2023-05-07T23:13:41.373Z,101488.63
2023-05-07T23:16:09.148Z,101499.94
2023-05-07T23:18:36.703Z,101500.84
2023-05-07T23:21:04.325Z,101508.91
2023-05-07T23:23:34.845Z,101500.84
2023-05-07T23:26:02.542Z,101504.75
2023-05-07T23:28:30.769Z,101501.91
2023-05-07T23:30:58.383Z,101506.16
2023-05-07T23:33:25.885Z,101496.50
2023-05-07T23:36:04.765Z,101504.53
2023-05-07T23:38:33.531Z,101498.59
2023-05-07T23:41:01.098Z,101504.06
2023-05-07T23:43:29.190Z,101502.38
2023-05-07T23:45:56.885Z,101497.97
2023-05-07T23:48:24.487Z,101500.34
2023-05-07T23:50:52.056Z,101503.31
2023-05-07T23:53:19.758Z,101493.59
2023-05-07T23:55:47.313Z,101495.28
2023-05-07T23:58:14.846Z,101489.16
